createdAt,value
2023-08-25T00:00:00.703Z,73.2
2023-08-25T00:01:00.710Z,73.2
2023-08-25T00:02:00.776Z,73.1
2023-08-25T00:03:00.725Z,73.1
2023-08-25T00:04:00.697Z,73.1
2023-08-25T00:05:00.652Z,73.1
2023-08-25T00:06:00.625Z,73.0
2023-08-25T00:07:00.648Z,72.9
2023-08-25T00:08:00.672Z,72.9
2023-08-25T00:09:00.651Z,73.0
2023-08-25T00:10:00.636Z,72.9
2023-08-25T00:11:00.760Z,73.0
2023-08-25T00:12:00.622Z,72.9
2023-08-25T00:13:00.634Z,72.9
2023-08-25T00:14:00.639Z,73.0
2023-08-25T00:15:00.663Z,73.1
2023-08-25T00:16:00.764Z,73.1
2023-08-25T00:17:00.661Z,73.1
2023-08-25T00:18:00.802Z,73.3
2023-08-25T00:19:00.666Z,73.4
2023-08-25T00:20:00.917Z,73.4
2023-08-25T00:21:00.672Z,73.3
2023-08-25T00:22:01.109Z,73.4
2023-08-25T00:23:00.644Z,73.4
2023-08-25T00:24:00.741Z,73.4
2023-08-25T00:25:00.668Z,73.4
2023-08-25T00:26:00.654Z,73.3
2023-08-25T00:27:00.716Z,73.3
2023-08-25T00:28:00.658Z,73.3
2023-08-25T00:29:00.686Z,73.3
2023-08-25T00:30:00.670Z,73.4
2023-08-25T00:31:00.737Z,73.4
2023-08-25T00:32:00.652Z,73.4
2023-08-25T00:33:00.868Z,73.4
2023-08-25T00:34:00.686Z,73.5
2023-08-25T00:35:00.734Z,73.5
2023-08-25T00:36:00.682Z,73.5
2023-08-25T00:37:01.987Z,73.5
2023-08-25T00:38:00.654Z,73.5
2023-08-25T00:39:00.691Z,73.6
2023-08-25T00:40:00.723Z,73.7
2023-08-25T00:41:00.626Z,73.6
2023-08-25T00:42:00.685Z,73.6
2023-08-25T00:43:00.698Z,73.6
2023-08-25T00:44:00.703Z,73.6
2023-08-25T00:45:00.670Z,74.0
2023-08-25T00:46:01.570Z,73.9
2023-08-25T00:47:00.840Z,73.8
2023-08-25T00:48:00.711Z,73.7
2023-08-25T00:49:01.215Z,73.8
2023-08-25T00:50:00.874Z,73.8
2023-08-25T00:51:01.767Z,73.9
2023-08-25T00:52:02.027Z,73.9
2023-08-25T00:53:00.645Z,74.0
2023-08-25T00:54:00.804Z,74.1
2023-08-25T00:55:01.050Z,74.0
2023-08-25T00:56:01.516Z,74.0
2023-08-25T00:57:01.991Z,73.9
2023-08-25T00:58:00.815Z,73.9
2023-08-25T00:59:01.768Z,73.9
2023-08-25T01:00:00.746Z,74.0
2023-08-25T01:01:01.814Z,74.0
2023-08-25T01:02:00.708Z,74.1
2023-08-25T01:03:01.017Z,74.2
2023-08-25T01:04:00.839Z,74.3
2023-08-25T01:05:00.646Z,74.2
2023-08-25T01:06:00.758Z,74.3
2023-08-25T01:07:00.640Z,74.1
2023-08-25T01:08:00.751Z,74.1
2023-08-25T01:09:00.895Z,74.1
2023-08-25T01:10:00.728Z,74.3
2023-08-25T01:11:00.675Z,74.4
2023-08-25T01:12:03.284Z,74.4
2023-08-25T01:13:05.707Z,74.4
2023-08-25T01:14:17.110Z,74.5
2023-08-25T01:15:07.909Z,74.5
2023-08-25T01:16:01.560Z,75.0
2023-08-25T01:17:03.166Z,74.8
2023-08-25T01:18:09.790Z,74.7
2023-08-25T01:19:03.536Z,74.8
2023-08-25T01:20:01.236Z,74.7
2023-08-25T01:21:03.638Z,75.0
2023-08-25T01:22:04.406Z,75.3
2023-08-25T01:23:01.685Z,75.2
2023-08-25T01:24:08.062Z,75.1
2023-08-25T01:25:31.347Z,75.1
2023-08-25T01:26:00.812Z,75.1
2023-08-25T01:27:01.433Z,75.1
2023-08-25T01:28:01.755Z,75.1
2023-08-25T01:29:00.652Z,75.1
2023-08-25T01:30:00.667Z,75.4
2023-08-25T01:31:00.991Z,75.9
2023-08-25T01:32:00.677Z,75.9
2023-08-25T01:33:01.049Z,75.9
2023-08-25T01:34:00.883Z,76.1
2023-08-25T01:35:00.709Z,76.7
2023-08-25T01:36:00.634Z,77.0
2023-08-25T01:37:00.604Z,76.7
2023-08-25T01:38:31.352Z,78.3
2023-08-25T01:39:04.078Z,78.3
2023-08-25T01:40:04.792Z,79.3
2023-08-25T01:41:01.724Z,79.6
2023-08-25T01:42:02.971Z,79.7
2023-08-25T01:43:02.830Z,79.6
2023-08-25T01:44:01.763Z,79.4
2023-08-25T01:45:04.004Z,79.3
2023-08-25T01:46:00.816Z,79.5
2023-08-25T01:47:03.712Z,79.1
2023-08-25T01:48:01.739Z,78.7
2023-08-25T01:49:01.277Z,78.7
2023-08-25T01:50:01.984Z,78.6
2023-08-25T01:51:00.849Z,78.4
2023-08-25T01:52:00.919Z,78.3
2023-08-25T01:53:01.609Z,78.1
2023-08-25T01:54:00.627Z,78.0
2023-08-25T01:55:01.139Z,78.0
2023-08-25T01:56:00.702Z,77.9
2023-08-25T01:57:00.657Z,77.8
2023-08-25T01:58:01.808Z,77.7
2023-08-25T01:59:00.645Z,77.8
2023-08-25T02:00:00.719Z,77.8
2023-08-25T02:01:00.660Z,77.9
2023-08-25T02:02:00.715Z,77.9
2023-08-25T02:03:00.714Z,77.9
2023-08-25T02:04:00.635Z,77.8
2023-08-25T02:05:00.712Z,77.8
2023-08-25T02:06:00.784Z,77.7
2023-08-25T02:07:01.004Z,77.6
2023-08-25T02:08:00.615Z,77.6
2023-08-25T02:09:00.633Z,77.8
2023-08-25T02:10:00.683Z,77.8
2023-08-25T02:11:00.774Z,77.7
2023-08-25T02:12:00.629Z,77.7
2023-08-25T02:13:00.666Z,77.7
2023-08-25T02:14:00.660Z,77.7
2023-08-25T02:15:00.701Z,77.7
2023-08-25T02:16:00.714Z,77.7
2023-08-25T02:17:00.651Z,77.6
2023-08-25T02:18:00.697Z,77.7
2023-08-25T02:19:00.644Z,77.6
2023-08-25T02:20:01.045Z,77.7
2023-08-25T02:21:00.640Z,77.7
2023-08-25T02:22:00.838Z,77.7
2023-08-25T02:23:00.652Z,77.8
2023-08-25T02:24:00.641Z,78.0
2023-08-25T02:25:00.663Z,78.0
2023-08-25T02:26:00.653Z,77.8
2023-08-25T02:27:00.652Z,77.7
2023-08-25T02:28:00.906Z,77.7
2023-08-25T02:29:00.686Z,77.6
2023-08-25T02:30:00.648Z,77.6
2023-08-25T02:31:00.635Z,77.6
2023-08-25T02:32:00.707Z,77.8
2023-08-25T02:33:00.761Z,77.9
2023-08-25T02:34:00.657Z,77.9
2023-08-25T02:35:00.647Z,77.9
2023-08-25T02:36:00.667Z,77.9
2023-08-25T02:37:00.643Z,77.8
2023-08-25T02:38:02.229Z,77.9
2023-08-25T02:39:00.600Z,78.0
2023-08-25T02:40:00.671Z,78.1
2023-08-25T02:41:00.718Z,78.1
2023-08-25T02:42:01.025Z,78.0
2023-08-25T02:43:01.789Z,78.1
2023-08-25T02:44:00.704Z,78.1
2023-08-25T02:45:00.637Z,78.1
2023-08-25T02:46:00.706Z,78.0
2023-08-25T02:47:00.646Z,77.9
2023-08-25T02:48:00.764Z,77.9
2023-08-25T02:49:00.677Z,78.0
2023-08-25T02:50:00.606Z,78.0
2023-08-25T02:51:00.645Z,78.1
2023-08-25T02:52:00.645Z,78.1
2023-08-25T02:53:00.628Z,78.2
2023-08-25T02:54:00.676Z,78.3
2023-08-25T02:55:00.933Z,78.2
2023-08-25T02:56:00.653Z,78.3
2023-08-25T02:57:00.632Z,78.1
2023-08-25T02:58:00.696Z,78.1
2023-08-25T02:59:00.646Z,78.2
2023-08-25T03:00:00.699Z,78.3
2023-08-25T03:01:00.625Z,79.4
2023-08-25T03:02:00.662Z,79.4
2023-08-25T03:03:00.786Z,79.3
2023-08-25T03:04:00.638Z,79.4
2023-08-25T03:05:00.624Z,79.5
2023-08-25T03:06:00.762Z,79.3
2023-08-25T03:07:00.634Z,79.2
2023-08-25T03:08:00.651Z,79.2
2023-08-25T03:09:00.631Z,79.5
2023-08-25T03:10:00.762Z,79.6
2023-08-25T03:11:02.645Z,79.5
2023-08-25T03:12:00.639Z,79.8
2023-08-25T03:13:00.617Z,79.7
2023-08-25T03:14:00.640Z,80.0
2023-08-25T03:15:11.363Z,80.0
2023-08-25T03:16:00.747Z,79.8
2023-08-25T03:17:00.725Z,79.6
2023-08-25T03:18:00.652Z,79.4
2023-08-25T03:19:00.636Z,79.3
2023-08-25T03:20:00.711Z,79.3
2023-08-25T03:21:00.672Z,79.2
2023-08-25T03:22:00.641Z,79.1
2023-08-25T03:23:00.643Z,79.2
2023-08-25T03:24:00.638Z,79.1
2023-08-25T03:25:00.650Z,79.1
2023-08-25T03:26:02.085Z,79.1
2023-08-25T03:27:00.708Z,79.1
2023-08-25T03:28:00.660Z,79.0
2023-08-25T03:29:00.684Z,79.1
2023-08-25T03:30:00.674Z,79.2
2023-08-25T03:31:00.665Z,79.3
2023-08-25T03:32:00.766Z,79.8
2023-08-25T03:33:00.719Z,79.8
2023-08-25T03:34:00.631Z,79.6
2023-08-25T03:35:00.840Z,79.7
2023-08-25T03:36:00.672Z,79.8
2023-08-25T03:37:00.628Z,80.1
2023-08-25T03:38:00.713Z,80.1
2023-08-25T03:39:00.697Z,80.1
2023-08-25T03:40:00.603Z,80.6
2023-08-25T03:41:00.679Z,80.9
2023-08-25T03:42:00.652Z,81.2
2023-08-25T03:43:00.655Z,81.3
2023-08-25T03:44:00.624Z,81.2
2023-08-25T03:45:00.640Z,81.3
2023-08-25T03:46:00.761Z,81.4
2023-08-25T03:47:00.700Z,81.4
2023-08-25T03:48:00.691Z,81.4
2023-08-25T03:49:00.668Z,81.6
2023-08-25T03:50:00.829Z,81.7
2023-08-25T03:51:00.608Z,81.9
2023-08-25T03:52:00.651Z,81.9
2023-08-25T03:53:00.658Z,81.7
2023-08-25T03:54:00.622Z,81.4
2023-08-25T03:55:00.655Z,81.1
2023-08-25T03:56:00.643Z,80.9
2023-08-25T03:57:00.691Z,80.7
2023-08-25T03:58:00.658Z,80.6
2023-08-25T03:59:00.638Z,80.6
2023-08-25T04:00:00.703Z,80.6
2023-08-25T04:01:00.744Z,80.5
2023-08-25T04:03:00.694Z,80.7
2023-08-25T04:04:00.646Z,81.1
2023-08-25T04:05:00.626Z,81.2
2023-08-25T04:06:00.853Z,81.3
2023-08-25T04:07:00.722Z,81.1
2023-08-25T04:08:00.596Z,81.0
2023-08-25T04:09:00.640Z,80.9
2023-08-25T04:10:00.639Z,81.0
2023-08-25T04:11:00.703Z,81.5
2023-08-25T04:12:00.804Z,81.6
2023-08-25T04:13:00.638Z,81.6
2023-08-25T04:14:00.618Z,81.8
2023-08-25T04:15:00.638Z,81.7
2023-08-25T04:16:00.660Z,81.5
2023-08-25T04:17:00.760Z,81.3
2023-08-25T04:18:00.687Z,81.3
2023-08-25T04:19:03.019Z,81.2
2023-08-25T04:20:01.011Z,81.5
2023-08-25T04:21:00.656Z,81.5
2023-08-25T04:22:00.660Z,81.3
2023-08-25T04:23:00.979Z,81.2
2023-08-25T04:24:00.634Z,81.2
2023-08-25T04:25:00.655Z,81.5
2023-08-25T04:26:00.651Z,81.7
2023-08-25T04:27:00.654Z,81.7
2023-08-25T04:28:00.723Z,81.4
2023-08-25T04:29:00.650Z,81.3
2023-08-25T04:30:00.652Z,81.4
2023-08-25T04:31:01.650Z,81.6
2023-08-25T04:32:00.630Z,81.9
2023-08-25T04:33:00.736Z,81.8
2023-08-25T04:34:00.732Z,81.7
2023-08-25T04:35:00.633Z,81.5
2023-08-25T04:36:00.692Z,81.3
2023-08-25T04:37:00.723Z,81.2
2023-08-25T04:38:00.625Z,81.1
2023-08-25T04:39:00.662Z,81.1
2023-08-25T04:40:00.656Z,81.2
2023-08-25T04:41:00.651Z,81.3
2023-08-25T04:42:00.639Z,81.4
2023-08-25T04:43:00.639Z,81.5
2023-08-25T04:44:00.653Z,81.5
2023-08-25T04:45:00.712Z,81.5
2023-08-25T04:46:00.688Z,81.6
2023-08-25T04:47:00.648Z,82.1
2023-08-25T04:48:00.689Z,82.0
2023-08-25T04:49:00.676Z,81.9
2023-08-25T04:50:00.664Z,81.8
2023-08-25T04:51:00.650Z,81.8
2023-08-25T04:52:00.631Z,81.7
2023-08-25T04:53:00.695Z,81.7
2023-08-25T04:54:00.644Z,81.6
2023-08-25T04:55:01.739Z,81.7
2023-08-25T04:56:00.712Z,81.8
2023-08-25T04:57:00.641Z,81.8
2023-08-25T04:58:00.656Z,81.6
2023-08-25T04:59:00.708Z,81.5
2023-08-25T05:00:00.636Z,81.6
2023-08-25T05:01:00.721Z,81.6
2023-08-25T05:02:00.614Z,81.6
2023-08-25T05:03:00.706Z,81.6
2023-08-25T05:04:00.638Z,81.6
2023-08-25T05:05:00.688Z,81.6
2023-08-25T05:06:00.689Z,81.6
2023-08-25T05:07:00.658Z,81.6
2023-08-25T05:08:00.650Z,81.6
2023-08-25T05:09:00.642Z,82.1
2023-08-25T05:10:00.633Z,82.2
2023-08-25T05:11:00.728Z,82.2
2023-08-25T05:12:00.722Z,82.2
2023-08-25T05:13:00.626Z,82.1
2023-08-25T05:14:00.670Z,82.3
2023-08-25T05:15:00.728Z,82.5
2023-08-25T05:16:00.711Z,82.6
2023-08-25T05:17:00.815Z,82.5
2023-08-25T05:18:11.973Z,82.4
2023-08-25T05:19:00.632Z,82.4
2023-08-25T05:20:00.636Z,82.4
2023-08-25T05:21:00.692Z,82.3
2023-08-25T05:22:00.674Z,82.3
2023-08-25T05:23:00.627Z,82.3
2023-08-25T05:24:16.204Z,82.3
2023-08-25T05:25:00.656Z,82.3
2023-08-25T05:26:00.623Z,82.2
2023-08-25T05:27:00.655Z,82.2
2023-08-25T05:28:00.640Z,82.2
2023-08-25T05:29:00.845Z,82.3
2023-08-25T05:30:00.666Z,82.4
2023-08-25T05:31:00.673Z,82.5
2023-08-25T05:32:00.916Z,82.5
2023-08-25T05:33:00.648Z,82.5
2023-08-25T05:34:00.652Z,82.4
2023-08-25T05:35:00.645Z,82.4
2023-08-25T05:36:00.682Z,82.4
2023-08-25T05:37:00.610Z,82.4
2023-08-25T05:38:00.653Z,82.4
2023-08-25T05:39:01.194Z,82.4
2023-08-25T05:40:00.703Z,82.6
2023-08-25T05:41:00.652Z,82.9
2023-08-25T05:42:00.650Z,83.0
2023-08-25T05:43:00.636Z,83.0
2023-08-25T05:44:01.436Z,83.1
2023-08-25T05:45:00.625Z,83.1
2023-08-25T05:46:00.677Z,83.3
2023-08-25T05:47:00.646Z,83.4
2023-08-25T05:48:00.795Z,83.2
2023-08-25T05:49:00.693Z,83.1
2023-08-25T05:50:00.642Z,83.1
2023-08-25T05:51:00.708Z,83.0
2023-08-25T05:52:00.644Z,82.9
2023-08-25T05:53:00.678Z,82.8
2023-08-25T05:54:00.675Z,82.5
2023-08-25T05:55:00.643Z,82.4
2023-08-25T05:56:00.659Z,82.2
2023-08-25T05:57:00.625Z,82.1
2023-08-25T05:58:00.646Z,81.9
2023-08-25T05:59:00.653Z,81.7
2023-08-25T06:00:00.628Z,81.6
2023-08-25T06:01:00.637Z,81.4
2023-08-25T06:02:00.790Z,81.2
2023-08-25T06:03:00.643Z,81.1
2023-08-25T06:04:01.644Z,81.2
2023-08-25T06:05:00.649Z,81.0
2023-08-25T06:06:00.638Z,80.9
2023-08-25T06:07:00.628Z,80.8
2023-08-25T06:08:00.664Z,80.6
2023-08-25T06:09:00.639Z,80.5
2023-08-25T06:10:00.634Z,80.4
2023-08-25T06:11:01.296Z,80.2
2023-08-25T06:12:00.679Z,79.9
2023-08-25T06:13:01.024Z,79.6
2023-08-25T06:14:00.701Z,79.6
2023-08-25T06:15:00.663Z,79.6
2023-08-25T06:16:00.929Z,79.4
2023-08-25T06:17:01.817Z,79.1
2023-08-25T06:18:01.106Z,78.9
2023-08-25T06:19:00.665Z,78.8
2023-08-25T06:20:00.631Z,78.5
2023-08-25T06:21:00.645Z,78.7
2023-08-25T06:22:00.851Z,78.6
2023-08-25T06:23:00.944Z,78.4
2023-08-25T06:24:00.952Z,78.1
2023-08-25T06:25:00.760Z,78.0
2023-08-25T06:26:00.646Z,77.3
2023-08-25T06:27:00.618Z,77.3
2023-08-25T06:28:00.641Z,77.1
2023-08-25T06:29:00.651Z,76.6
2023-08-25T06:30:00.865Z,76.0
2023-08-25T06:31:00.706Z,76.0
2023-08-25T06:32:00.646Z,76.2
2023-08-25T06:33:00.696Z,75.9
2023-08-25T06:34:01.204Z,75.8
2023-08-25T06:35:00.860Z,74.5
2023-08-25T06:36:00.626Z,74.4
2023-08-25T06:37:00.633Z,74.2
2023-08-25T06:38:00.624Z,73.5
2023-08-25T06:39:01.081Z,73.6
2023-08-25T06:40:01.535Z,73.6
2023-08-25T06:41:00.671Z,73.7
2023-08-25T06:42:00.618Z,73.1
2023-08-25T06:43:01.297Z,72.4
2023-08-25T06:44:00.665Z,71.6
2023-08-25T06:45:01.015Z,70.2
2023-08-25T06:46:00.717Z,70.8
2023-08-25T06:47:00.653Z,70.9
2023-08-25T06:48:00.684Z,70.8
2023-08-25T06:49:00.647Z,70.2
2023-08-25T06:50:01.162Z,70.0
2023-08-25T06:51:00.659Z,69.3
2023-08-25T06:52:00.646Z,68.0
2023-08-25T06:53:00.608Z,68.5
2023-08-25T06:54:00.692Z,66.5
2023-08-25T06:55:00.652Z,67.6
2023-08-25T06:56:00.710Z,65.7
2023-08-25T06:57:01.032Z,66.8
2023-08-25T06:58:00.932Z,65.1
2023-08-25T06:59:00.627Z,64.2
2023-08-25T07:00:00.677Z,64.1
2023-08-25T07:01:00.678Z,64.0
2023-08-25T07:02:00.671Z,64.0
2023-08-25T07:13:00.851Z,60.3
2023-08-25T07:14:00.493Z,61.1
2023-08-25T07:15:00.593Z,58.9
2023-08-25T07:16:00.578Z,58.4
2023-08-25T07:17:00.509Z,59.6
2023-08-25T07:18:00.552Z,58.4
2023-08-25T07:19:00.510Z,58.1
2023-08-25T07:20:00.759Z,58.4
2023-08-25T07:21:04.071Z,59.1
2023-08-25T07:22:00.484Z,58.0
2023-08-25T07:23:00.528Z,57.5
2023-08-25T07:24:00.605Z,58.2
2023-08-25T07:25:00.520Z,59.0
2023-08-25T07:26:00.480Z,58.9
2023-08-25T07:27:00.550Z,58.1
2023-08-25T07:28:00.497Z,58.2
2023-08-25T07:29:00.496Z,58.4
2023-08-25T07:30:00.530Z,58.7
2023-08-25T07:31:00.602Z,58.5
2023-08-25T07:32:00.508Z,58.6
2023-08-25T07:33:00.590Z,57.5
2023-08-25T07:34:00.509Z,57.8
2023-08-25T07:35:00.574Z,57.5
2023-08-25T07:36:02.350Z,55.5
2023-08-25T07:37:00.489Z,55.2
2023-08-25T07:38:00.776Z,54.6
2023-08-25T07:39:00.508Z,53.2
2023-08-25T07:40:00.527Z,54.0
2023-08-25T07:41:00.542Z,53.3
2023-08-25T07:42:00.488Z,53.1
2023-08-25T07:43:00.983Z,53.1
2023-08-25T07:44:00.478Z,52.2
2023-08-25T07:45:00.493Z,52.8
2023-08-25T07:46:00.653Z,51.3
2023-08-25T07:47:00.512Z,51.7
2023-08-25T07:48:00.553Z,50.4
2023-08-25T07:49:00.499Z,49.8
2023-08-25T07:50:00.518Z,49.8
2023-08-25T07:51:00.535Z,49.6
2023-08-25T07:52:00.529Z,49.1
2023-08-25T07:53:00.531Z,49.0
2023-08-25T07:54:00.534Z,49.0
2023-08-25T07:55:00.524Z,49.4
2023-08-25T07:56:00.507Z,49.2
2023-08-25T07:57:00.592Z,48.1
2023-08-25T07:58:00.502Z,48.8
2023-08-25T07:59:00.450Z,47.2
2023-08-25T08:00:00.548Z,47.4
2023-08-25T08:01:00.526Z,47.5
2023-08-25T08:02:00.524Z,47.6
2023-08-25T08:03:00.596Z,46.9
2023-08-25T08:04:00.559Z,47.0
2023-08-25T08:05:00.472Z,47.7
2023-08-25T08:06:00.512Z,47.3
2023-08-25T08:07:00.560Z,47.1
2023-08-25T08:08:00.619Z,46.3
2023-08-25T08:09:00.549Z,46.2
2023-08-25T08:10:00.511Z,46.8
2023-08-25T08:11:00.502Z,46.2
2023-08-25T08:12:00.574Z,45.6
2023-08-25T08:13:00.495Z,46.6
2023-08-25T08:14:00.564Z,45.7
2023-08-25T08:15:00.499Z,45.9
2023-08-25T08:16:00.748Z,45.2
2023-08-25T08:17:00.545Z,44.7
2023-08-25T08:18:00.622Z,45.0
2023-08-25T08:19:00.547Z,44.0
2023-08-25T08:20:00.481Z,44.3
2023-08-25T08:21:00.494Z,44.6
2023-08-25T08:22:00.471Z,44.0
2023-08-25T08:23:00.626Z,44.3
2023-08-25T08:24:00.546Z,44.4
2023-08-25T08:25:00.497Z,43.8
2023-08-25T08:26:00.510Z,44.1
2023-08-25T08:27:00.459Z,44.4
2023-08-25T08:28:00.473Z,44.5
2023-08-25T08:29:00.502Z,43.4
2023-08-25T08:30:00.550Z,43.6
2023-08-25T08:31:00.573Z,43.7
2023-08-25T08:32:00.489Z,43.6
2023-08-25T08:33:00.494Z,43.5
2023-08-25T08:34:00.509Z,43.8
2023-08-25T08:35:00.510Z,44.6
2023-08-25T08:36:00.509Z,44.1
2023-08-25T08:37:00.497Z,43.8
2023-08-25T08:38:00.478Z,43.4
2023-08-25T08:39:00.490Z,42.5
2023-08-25T08:40:00.617Z,43.3
2023-08-25T08:41:01.048Z,42.7
2023-08-25T08:42:00.860Z,42.8
2023-08-25T08:43:00.720Z,42.5
2023-08-25T08:44:02.991Z,42.5
2023-08-25T08:45:02.105Z,42.2
2023-08-25T08:46:01.284Z,42.3
2023-08-25T08:47:01.370Z,41.7
2023-08-25T08:48:00.993Z,41.5
2023-08-25T08:49:03.218Z,40.8
2023-08-25T08:50:01.205Z,41.4
2023-08-25T08:51:01.857Z,42.3
2023-08-25T08:52:01.046Z,42.0
2023-08-25T08:53:01.148Z,42.7
2023-08-25T08:54:01.831Z,42.5
2023-08-25T08:55:00.524Z,42.6
2023-08-25T08:56:00.904Z,43.3
2023-08-25T08:57:00.769Z,42.8
2023-08-25T08:58:00.531Z,42.3
2023-08-25T08:59:01.876Z,41.4
2023-08-25T09:00:01.099Z,41.7
2023-08-25T09:01:01.839Z,42.2
2023-08-25T09:02:00.749Z,41.7
2023-08-25T09:03:05.650Z,41.5
2023-08-25T09:04:02.247Z,41.3
2023-08-25T09:05:01.029Z,41.0
2023-08-25T09:06:01.334Z,41.1
2023-08-25T09:07:00.923Z,40.7
2023-08-25T09:08:03.397Z,39.8
2023-08-25T09:09:02.001Z,39.3
2023-08-25T09:10:01.058Z,39.9
2023-08-25T09:11:02.353Z,39.6
2023-08-25T09:12:00.522Z,39.4
2023-08-25T09:13:00.616Z,39.1
2023-08-25T09:14:10.220Z,39.2
2023-08-25T09:15:00.520Z,39.8
2023-08-25T09:16:00.861Z,39.3
2023-08-25T09:17:01.696Z,39.0
2023-08-25T09:18:00.534Z,38.8
2023-08-25T09:19:01.587Z,38.3
2023-08-25T09:20:04.586Z,38.3
2023-08-25T09:21:00.584Z,38.5
2023-08-25T09:22:01.544Z,38.6
2023-08-25T09:23:00.974Z,38.1
2023-08-25T09:24:01.033Z,37.3
2023-08-25T09:25:00.535Z,37.4
2023-08-25T09:26:02.217Z,37.2
2023-08-25T09:27:00.488Z,37.3
2023-08-25T09:28:01.747Z,37.2
2023-08-25T09:29:00.477Z,36.6
2023-08-25T09:30:01.830Z,37.1
2023-08-25T09:31:00.655Z,37.1
2023-08-25T09:32:03.073Z,37.2
2023-08-25T09:33:02.701Z,37.3
2023-08-25T09:34:01.777Z,37.4
2023-08-25T09:35:16.149Z,37.4
2023-08-25T09:36:02.671Z,37.3
2023-08-25T09:37:00.609Z,37.3
2023-08-25T09:38:00.763Z,37.3
2023-08-25T09:39:04.401Z,37.2
2023-08-25T09:40:00.497Z,37.3
2023-08-25T09:41:00.562Z,37.3
2023-08-25T09:42:05.777Z,37.4
2023-08-25T09:43:01.232Z,37.6
2023-08-25T09:44:01.943Z,37.5
2023-08-25T09:45:00.528Z,37.5
2023-08-25T09:46:00.622Z,37.4
2023-08-25T09:47:01.766Z,37.4
2023-08-25T09:48:07.907Z,37.0
2023-08-25T09:49:04.506Z,36.7
2023-08-25T09:50:00.570Z,36.8
2023-08-25T09:51:00.687Z,36.6
2023-08-25T09:52:00.802Z,36.6
2023-08-25T09:53:00.637Z,36.7
2023-08-25T09:54:03.452Z,36.8
2023-08-25T09:55:00.532Z,37.1
2023-08-25T09:56:03.110Z,37.2
2023-08-25T09:57:01.176Z,37.0
2023-08-25T09:58:00.768Z,36.5
2023-08-25T09:59:02.267Z,36.2
2023-08-25T10:00:01.305Z,36.6
2023-08-25T10:01:00.962Z,36.6
2023-08-25T10:02:00.672Z,36.8
2023-08-25T10:03:01.833Z,36.6
2023-08-25T10:04:01.674Z,36.3
2023-08-25T10:05:01.556Z,36.5
2023-08-25T10:06:00.653Z,36.6
2023-08-25T10:07:01.530Z,36.5
2023-08-25T10:08:00.526Z,36.6
2023-08-25T10:09:00.918Z,36.6
2023-08-25T10:10:00.516Z,36.2
2023-08-25T10:11:01.979Z,36.5
2023-08-25T10:12:02.375Z,36.5
2023-08-25T10:13:01.761Z,36.4
2023-08-25T10:14:02.675Z,36.5
2023-08-25T10:15:01.470Z,36.5
2023-08-25T10:16:02.207Z,36.7
2023-08-25T10:17:00.855Z,36.8
2023-08-25T10:18:01.189Z,36.7
2023-08-25T10:19:01.860Z,36.5
2023-08-25T10:20:02.380Z,36.3
2023-08-25T10:21:00.705Z,36.4
2023-08-25T10:22:02.020Z,36.4
2023-08-25T10:23:00.778Z,36.6
2023-08-25T10:24:00.942Z,36.6
2023-08-25T10:25:01.207Z,36.6
2023-08-25T10:26:00.579Z,36.7
2023-08-25T10:27:00.893Z,37.0
2023-08-25T10:28:01.420Z,36.6
2023-08-25T10:29:00.665Z,36.4
2023-08-25T10:30:00.978Z,36.6
2023-08-25T10:31:00.897Z,36.6
2023-08-25T10:32:01.952Z,36.9
2023-08-25T10:33:02.543Z,37.0
2023-08-25T10:34:00.513Z,36.9
2023-08-25T10:35:00.510Z,37.0
2023-08-25T10:36:02.880Z,37.2
2023-08-25T10:37:33.674Z,37.4
2023-08-25T10:38:00.494Z,37.4
2023-08-25T10:39:00.532Z,36.9
2023-08-25T10:40:07.449Z,36.8
2023-08-25T10:41:10.479Z,36.8
2023-08-25T10:42:01.095Z,36.8
2023-08-25T10:43:04.327Z,36.7
2023-08-25T10:44:00.510Z,36.5
2023-08-25T10:45:01.487Z,37.2
2023-08-25T10:46:01.015Z,37.3
2023-08-25T10:47:01.282Z,37.2
2023-08-25T10:48:01.341Z,37.1
2023-08-25T10:49:04.605Z,36.4
2023-08-25T10:50:02.976Z,36.7
2023-08-25T10:51:07.943Z,36.7
2023-08-25T10:52:11.645Z,37.0
2023-08-25T10:53:00.487Z,36.9
2023-08-25T10:54:00.553Z,36.9
2023-08-25T10:55:22.563Z,36.9
2023-08-25T10:56:11.857Z,36.9
2023-08-25T10:57:17.062Z,36.9
2023-08-25T10:58:01.427Z,36.8
2023-08-25T10:59:09.022Z,36.4
2023-08-25T11:00:23.870Z,37.3
2023-08-25T11:01:01.287Z,37.3
2023-08-25T11:02:00.779Z,37.4
2023-08-25T11:03:01.092Z,37.3
2023-08-25T11:04:05.128Z,37.2
2023-08-25T11:05:31.392Z,37.2
2023-08-25T11:06:00.499Z,37.2
2023-08-25T11:07:00.543Z,37.4
2023-08-25T11:08:00.977Z,37.4
2023-08-25T11:09:00.479Z,37.7
2023-08-25T11:10:11.864Z,37.7
2023-08-25T11:11:08.457Z,37.8
2023-08-25T11:12:03.719Z,37.9
2023-08-25T11:13:09.341Z,37.5
2023-08-25T11:14:00.630Z,37.5
2023-08-25T11:15:00.516Z,37.7
2023-08-25T11:16:04.911Z,37.8
2023-08-25T11:17:02.788Z,37.7
2023-08-25T11:18:01.558Z,37.5
2023-08-25T11:19:00.467Z,37.1
2023-08-25T11:20:00.714Z,37.3
2023-08-25T11:21:01.805Z,37.5
2023-08-25T11:22:01.497Z,37.5
2023-08-25T11:23:17.106Z,37.5
2023-08-25T11:24:00.488Z,37.5
2023-08-25T11:25:00.499Z,37.4
2023-08-25T11:26:00.456Z,37.8
2023-08-25T11:27:03.953Z,37.8
2023-08-25T11:28:02.954Z,37.8
2023-08-25T11:29:01.132Z,37.7
2023-08-25T11:30:16.654Z,37.8
2023-08-25T11:31:00.905Z,37.6
2023-08-25T11:32:01.166Z,37.5
2023-08-25T11:33:00.508Z,37.5
2023-08-25T11:34:00.528Z,37.3
2023-08-25T11:35:03.805Z,37.4
2023-08-25T11:36:00.692Z,37.4
2023-08-25T11:37:00.536Z,37.7
2023-08-25T11:38:01.711Z,38.1
2023-08-25T11:39:00.452Z,38.3
2023-08-25T11:40:00.507Z,38.4
2023-08-25T11:41:00.516Z,38.2
2023-08-25T11:42:01.108Z,38.0
2023-08-25T11:43:00.484Z,37.9
2023-08-25T11:44:00.483Z,38.1
2023-08-25T11:45:06.357Z,38.3
2023-08-25T11:46:00.657Z,37.8
2023-08-25T11:47:01.467Z,37.6
2023-08-25T11:48:00.685Z,37.2
2023-08-25T11:49:00.591Z,36.8
2023-08-25T11:50:00.846Z,37.1
2023-08-25T11:51:01.100Z,37.2
2023-08-25T11:52:00.499Z,37.1
2023-08-25T11:53:03.224Z,37.4
2023-08-25T11:54:00.711Z,37.3
2023-08-25T11:55:00.788Z,37.2
2023-08-25T11:56:02.633Z,37.1
2023-08-25T11:57:00.462Z,37.2
2023-08-25T11:58:08.066Z,37.2
2023-08-25T11:59:00.504Z,37.1
2023-08-25T12:00:02.718Z,36.9
2023-08-25T12:01:11.298Z,36.8
2023-08-25T12:02:00.461Z,36.7
2023-08-25T12:03:00.547Z,36.7
2023-08-25T12:04:18.679Z,36.5
2023-08-25T12:05:01.562Z,36.5
2023-08-25T12:06:08.140Z,36.9
2023-08-25T12:07:00.554Z,36.9
2023-08-25T12:08:00.686Z,36.6
2023-08-25T12:09:00.534Z,36.0
2023-08-25T12:10:02.164Z,36.0
2023-08-25T12:11:00.969Z,35.2
2023-08-25T12:12:01.415Z,35.2
2023-08-25T12:13:00.521Z,35.2
2023-08-25T12:14:00.522Z,35.4
2023-08-25T12:15:00.558Z,35.5
2023-08-25T12:16:01.876Z,35.4
2023-08-25T12:17:00.557Z,35.3
2023-08-25T12:18:00.569Z,35.2
2023-08-25T12:19:03.140Z,34.4
2023-08-25T12:20:00.540Z,34.6
2023-08-25T12:21:01.535Z,34.4
2023-08-25T12:22:02.856Z,35.0
2023-08-25T12:23:00.518Z,35.0
2023-08-25T12:24:00.519Z,35.1
2023-08-25T12:25:00.508Z,35.1
2023-08-25T12:26:00.980Z,35.2
2023-08-25T12:27:00.535Z,35.2
2023-08-25T12:28:00.551Z,35.5
2023-08-25T12:29:00.528Z,34.6
2023-08-25T12:30:00.483Z,34.4
2023-08-25T12:31:01.257Z,35.0
2023-08-25T12:32:00.554Z,35.1
2023-08-25T12:33:00.727Z,35.1
2023-08-25T12:34:00.478Z,35.2
2023-08-25T12:35:00.503Z,35.2
2023-08-25T12:36:00.532Z,35.8
2023-08-25T12:37:00.927Z,35.9
2023-08-25T12:38:00.713Z,36.2
2023-08-25T12:39:00.486Z,35.8
2023-08-25T12:40:00.694Z,36.0
2023-08-25T12:41:00.531Z,35.9
2023-08-25T12:42:00.455Z,35.9
2023-08-25T12:43:00.496Z,36.2
2023-08-25T12:44:00.540Z,36.4
2023-08-25T12:45:00.468Z,36.3
2023-08-25T12:46:00.629Z,36.1
2023-08-25T12:47:00.533Z,35.6
2023-08-25T12:48:00.656Z,35.8
2023-08-25T12:49:00.487Z,35.4
2023-08-25T12:50:00.480Z,35.0
2023-08-25T12:51:00.509Z,35.2
2023-08-25T12:52:00.538Z,35.5
2023-08-25T12:53:00.477Z,35.8
2023-08-25T12:54:08.618Z,35.8
2023-08-25T12:55:18.365Z,35.9
2023-08-25T12:56:00.511Z,35.7
2023-08-25T12:57:00.463Z,35.3
2023-08-25T12:58:00.496Z,35.1
2023-08-25T12:59:01.924Z,33.6
2023-08-25T13:00:00.519Z,33.8
2023-08-25T13:01:00.544Z,34.0
2023-08-25T13:02:00.550Z,34.2
2023-08-25T13:03:00.696Z,34.1
2023-08-25T13:04:00.565Z,34.1
2023-08-25T13:05:00.512Z,34.0
2023-08-25T13:06:00.759Z,33.9
2023-08-25T13:07:00.485Z,33.1
2023-08-25T13:08:00.513Z,33.0
2023-08-25T13:09:00.531Z,32.6
2023-08-25T13:10:00.821Z,33.2
2023-08-25T13:11:00.513Z,33.5
2023-08-25T13:12:00.481Z,33.6
2023-08-25T13:13:00.492Z,33.9
2023-08-25T13:14:00.567Z,34.1
2023-08-25T13:15:01.358Z,34.3
2023-08-25T13:16:00.580Z,34.3
2023-08-25T13:17:00.515Z,34.2
2023-08-25T13:18:00.618Z,34.2
2023-08-25T13:19:00.571Z,33.5
2023-08-25T13:20:01.278Z,33.8
2023-08-25T13:21:00.575Z,33.6
2023-08-25T13:22:00.493Z,33.9
2023-08-25T13:23:00.473Z,33.9
2023-08-25T13:24:09.370Z,34.0
2023-08-25T13:25:00.529Z,33.7
2023-08-25T13:26:00.714Z,33.9
2023-08-25T13:27:00.491Z,34.1
2023-08-25T13:28:00.585Z,34.3
2023-08-25T13:29:02.226Z,33.5